createdAt,value
2023-02-11T00:00:12.789Z,32.95
2023-02-11T00:02:38.678Z,32.10
2023-02-11T00:05:04.957Z,31.38
2023-02-11T00:07:32.461Z,32.08
2023-02-11T00:09:58.485Z,33.92
2023-02-11T00:12:24.914Z,33.65
2023-02-11T00:14:51.019Z,33.42
2023-02-11T00:17:17.170Z,32.38
2023-02-11T00:19:43.045Z,31.63
2023-02-11T00:22:08.876Z,33.15
2023-02-11T00:24:36.162Z,33.00
2023-02-11T00:27:02.194Z,32.83
2023-02-11T00:29:28.067Z,32.60
2023-02-11T00:31:53.990Z,31.13
2023-02-11T00:34:19.852Z,33.75
2023-02-11T00:36:45.714Z,32.63
2023-02-11T00:39:11.583Z,33.17
2023-02-11T00:41:37.458Z,33.15
2023-02-11T00:44:03.515Z,34.10
2023-02-11T00:46:29.479Z,33.78
2023-02-11T00:48:57.037Z,32.63
2023-02-11T00:51:27.740Z,32.58
2023-02-11T00:53:53.732Z,31.63
2023-02-11T00:56:20.473Z,31.08
2023-02-11T00:58:46.419Z,29.80
2023-02-11T01:01:13.273Z,32.33
2023-02-11T01:03:39.687Z,30.95
2023-02-11T01:06:08.347Z,31.38
2023-02-11T01:08:34.418Z,30.63
2023-02-11T01:11:03.398Z,33.03
2023-02-11T01:13:30.950Z,31.58
2023-02-11T01:15:57.342Z,30.92
2023-02-11T01:18:23.826Z,30.38
2023-02-11T01:20:51.431Z,32.08
2023-02-11T01:23:17.600Z,30.17
2023-02-11T01:25:44.026Z,31.73
2023-02-11T01:28:18.051Z,29.55
2023-02-11T01:30:44.367Z,30.48
2023-02-11T01:33:12.110Z,30.52
2023-02-11T01:35:39.344Z,31.02
2023-02-11T01:38:07.211Z,30.88
2023-02-11T01:40:34.265Z,30.90
2023-02-11T01:43:00.363Z,30.92
2023-02-11T01:45:41.865Z,29.55
2023-02-11T01:48:11.326Z,29.58
2023-02-11T01:50:39.351Z,32.00
2023-02-11T01:53:24.228Z,29.35
2023-02-11T01:56:12.394Z,31.08
2023-02-11T01:58:42.044Z,30.38
2023-02-11T02:01:12.508Z,32.22
2023-02-11T02:03:41.810Z,32.03
2023-02-11T02:06:16.016Z,29.55
2023-02-11T02:08:51.748Z,30.02
2023-02-11T02:11:17.591Z,31.85
2023-02-11T02:13:44.108Z,30.70
2023-02-11T02:16:16.148Z,30.73
2023-02-11T02:18:53.634Z,31.30
2023-02-11T02:21:28.492Z,30.33
2023-02-11T02:24:27.041Z,31.38
2023-02-11T02:26:58.520Z,30.30
2023-02-11T02:29:59.946Z,30.92
2023-02-11T02:32:37.853Z,29.83
2023-02-11T02:35:25.892Z,29.27
2023-02-11T02:38:22.567Z,30.30
2023-02-11T02:40:58.264Z,28.30
2023-02-11T02:43:26.246Z,28.77
2023-02-11T02:45:52.941Z,28.75
2023-02-11T02:48:34.118Z,28.90
2023-02-11T02:51:08.255Z,31.08
2023-02-11T02:53:58.830Z,30.02
2023-02-11T02:56:33.578Z,30.60
2023-02-11T02:59:14.353Z,30.83
2023-02-11T03:02:04.719Z,30.73
2023-02-11T03:04:43.669Z,30.65
2023-02-11T03:07:24.456Z,28.58
2023-02-11T03:10:08.533Z,30.20
2023-02-11T03:12:36.585Z,29.48
2023-02-11T03:15:06.146Z,32.10
2023-02-11T03:17:34.320Z,30.80
2023-02-11T03:20:03.953Z,31.08
2023-02-11T03:22:40.312Z,31.20
2023-02-11T03:25:06.856Z,30.33
2023-02-11T03:27:40.696Z,31.55
2023-02-11T03:30:17.722Z,29.65
2023-02-11T03:32:50.639Z,32.95
2023-02-11T03:35:27.321Z,30.98
2023-02-11T03:38:09.900Z,31.73
2023-02-11T03:40:38.058Z,31.90
2023-02-11T03:43:19.127Z,31.50
2023-02-11T03:45:48.580Z,32.50
2023-02-11T03:48:19.708Z,31.35
2023-02-11T03:50:47.683Z,31.95
2023-02-11T03:53:15.221Z,33.10
2023-02-11T03:55:43.473Z,31.23
2023-02-11T03:58:09.583Z,33.88
2023-02-11T04:00:38.870Z,35.30
2023-02-11T04:03:05.490Z,38.13
2023-02-11T04:05:32.019Z,35.92
2023-02-11T04:07:57.850Z,35.88
2023-02-11T04:10:23.756Z,35.40
2023-02-11T04:12:49.519Z,37.17
2023-02-11T04:15:15.548Z,38.97
2023-02-11T04:17:41.347Z,38.08
2023-02-11T04:20:07.859Z,37.30
2023-02-11T04:22:33.758Z,37.45
2023-02-11T04:24:59.600Z,39.13
2023-02-11T04:27:25.452Z,38.88
2023-02-11T04:29:51.281Z,40.20
2023-02-11T04:32:17.107Z,40.72
2023-02-11T04:34:43.056Z,41.90
2023-02-11T04:37:08.961Z,41.92
2023-02-11T04:39:34.767Z,38.72
2023-02-11T04:42:00.619Z,41.00
2023-02-11T04:44:26.397Z,40.83
2023-02-11T04:46:52.436Z,40.70
2023-02-11T04:49:18.285Z,41.00
2023-02-11T04:51:44.458Z,41.00
2023-02-11T04:54:11.151Z,43.78
2023-02-11T04:56:37.382Z,42.38
2023-02-11T04:59:04.150Z,42.53
2023-02-11T05:01:30.077Z,42.70
2023-02-11T05:03:57.029Z,41.70
2023-02-11T05:06:23.307Z,42.65
2023-02-11T05:08:49.324Z,43.97
2023-02-11T05:11:18.692Z,43.22
2023-02-11T05:13:44.997Z,43.30
2023-02-11T05:16:11.209Z,42.30
2023-02-11T05:18:38.335Z,45.17
2023-02-11T05:21:08.763Z,42.67
2023-02-11T05:23:35.951Z,42.40
2023-02-11T05:26:02.999Z,45.25
2023-02-11T05:28:28.985Z,45.25
2023-02-11T05:30:55.294Z,48.30
2023-02-11T05:33:21.184Z,46.22
2023-02-11T05:35:46.938Z,45.45
2023-02-11T05:38:12.870Z,45.05
2023-02-11T05:40:38.642Z,44.17
2023-02-11T05:43:04.470Z,48.03
2023-02-11T05:45:30.297Z,45.72
2023-02-11T05:47:56.978Z,44.03
2023-02-11T05:50:23.182Z,43.95
2023-02-11T05:52:49.119Z,47.53
2023-02-11T05:55:15.429Z,43.47
2023-02-11T05:57:41.245Z,44.13
2023-02-11T06:00:07.953Z,46.15
2023-02-11T06:02:33.940Z,41.80
2023-02-11T06:04:59.743Z,43.35
2023-02-11T06:07:25.512Z,45.55
2023-02-11T06:09:51.333Z,40.20
2023-02-11T06:12:17.138Z,40.65
2023-02-11T06:14:43.085Z,38.17
2023-02-11T06:17:08.894Z,40.28
2023-02-11T06:19:34.735Z,37.80
2023-02-11T06:22:00.556Z,37.80
2023-02-11T06:24:48.167Z,35.88
2023-02-11T06:27:12.575Z,40.65
2023-02-11T06:29:38.437Z,40.58
2023-02-11T06:32:04.586Z,42.30
2023-02-11T06:34:30.520Z,36.42
2023-02-11T06:36:56.389Z,45.17
2023-02-11T06:39:22.138Z,34.08
2023-02-11T06:41:48.290Z,32.38
2023-02-11T06:44:14.025Z,34.55
2023-02-11T06:46:39.853Z,32.85
2023-02-11T06:49:05.674Z,34.38
2023-02-11T06:51:31.411Z,33.63
2023-02-11T06:53:57.249Z,32.10
2023-02-11T06:56:26.592Z,30.75
2023-02-11T06:58:54.794Z,37.17
2023-02-11T07:01:21.697Z,29.30
2023-02-11T07:03:47.591Z,31.00
2023-02-11T07:06:16.950Z,34.15
2023-02-11T07:08:45.082Z,30.17
2023-02-11T07:11:13.800Z,32.88
2023-02-11T07:13:39.798Z,29.75
2023-02-11T07:16:07.619Z,29.67
2023-02-11T07:18:33.756Z,30.52
2023-02-11T07:21:04.429Z,28.05
2023-02-11T07:23:30.235Z,28.65
2023-02-11T07:25:56.084Z,27.02
2023-02-11T07:28:22.001Z,23.85
2023-02-11T07:30:47.879Z,25.38
2023-02-11T07:33:13.730Z,25.88
2023-02-11T07:35:42.311Z,25.75
2023-02-11T07:38:08.489Z,24.13
2023-02-11T07:40:34.248Z,26.88
2023-02-11T07:43:00.934Z,25.75
2023-02-11T07:45:26.736Z,24.95
2023-02-11T07:47:52.580Z,24.00
2023-02-11T07:50:18.543Z,25.45
2023-02-11T07:52:44.339Z,25.55
2023-02-11T07:55:10.823Z,25.25
2023-02-11T07:57:37.001Z,25.80
2023-02-11T08:00:04.889Z,26.13
2023-02-11T08:02:30.712Z,24.00
2023-02-11T08:04:56.553Z,26.98
2023-02-11T08:07:22.332Z,25.30
2023-02-11T08:09:48.534Z,25.40
2023-02-11T08:12:14.316Z,25.50
2023-02-11T08:14:40.089Z,27.00
2023-02-11T08:17:06.028Z,30.80
2023-02-11T08:19:34.878Z,27.20
2023-02-11T08:22:01.219Z,25.23
2023-02-11T08:24:27.230Z,28.70
2023-02-11T08:26:53.046Z,26.67
2023-02-11T08:29:18.850Z,26.75
2023-02-11T08:31:47.436Z,26.58
2023-02-11T08:34:13.846Z,29.45
2023-02-11T08:36:41.670Z,31.42
2023-02-11T08:39:19.283Z,30.48
2023-02-11T08:41:51.418Z,27.05
2023-02-11T08:44:18.902Z,27.77
2023-02-11T08:46:45.164Z,41.92
2023-02-11T08:49:10.990Z,34.30
2023-02-11T08:51:37.035Z,33.80
2023-02-11T08:54:03.276Z,30.30
2023-02-11T08:56:30.934Z,29.73
2023-02-11T08:58:56.843Z,29.00
2023-02-11T09:01:25.967Z,35.15
2023-02-11T09:03:52.718Z,31.52
2023-02-11T09:06:20.078Z,29.75
2023-02-11T09:08:48.777Z,33.40
2023-02-11T09:11:15.588Z,35.20
2023-02-11T09:13:43.171Z,30.45
2023-02-11T09:16:16.900Z,29.05
2023-02-11T09:18:43.684Z,36.75
2023-02-11T09:21:09.662Z,29.20
2023-02-11T09:23:36.429Z,30.58
2023-02-11T09:26:09.213Z,31.90
2023-02-11T09:28:36.131Z,34.20
2023-02-11T09:31:10.963Z,32.47
2023-02-11T09:33:38.650Z,33.35
2023-02-11T09:36:05.845Z,32.20
2023-02-11T09:38:32.314Z,33.65
2023-02-11T09:40:58.512Z,34.55
2023-02-11T09:43:34.850Z,33.75
2023-02-11T09:46:00.994Z,42.97
2023-02-11T09:48:39.347Z,32.17
2023-02-11T09:51:06.518Z,34.85
2023-02-11T09:53:40.635Z,33.13
2023-02-11T09:56:14.649Z,34.88
2023-02-11T09:58:42.887Z,40.25
2023-02-11T10:01:15.732Z,42.63
2023-02-11T10:03:55.076Z,36.92
2023-02-11T10:06:38.668Z,43.08
2023-02-11T10:09:25.906Z,42.92
2023-02-11T10:12:33.000Z,42.03
2023-02-11T10:15:15.873Z,45.28
2023-02-11T10:18:00.984Z,42.08
2023-02-11T10:20:32.897Z,41.17
2023-02-11T10:23:02.572Z,34.75
2023-02-11T10:25:36.055Z,40.65
2023-02-11T10:28:13.337Z,46.28
2023-02-11T10:31:00.216Z,41.97
2023-02-11T10:33:47.044Z,44.28
2023-02-11T10:36:15.560Z,48.80
2023-02-11T10:38:42.466Z,41.10
2023-02-11T10:41:12.792Z,40.63
2023-02-11T10:43:41.634Z,43.95
2023-02-11T10:46:21.494Z,40.33
2023-02-11T10:48:52.030Z,38.58
2023-02-11T10:51:28.399Z,34.38
2023-02-11T10:54:03.320Z,35.08
2023-02-11T10:56:35.072Z,38.03
2023-02-11T10:59:03.013Z,39.63
2023-02-11T11:01:42.683Z,35.65
2023-02-11T11:04:33.555Z,45.70
2023-02-11T11:07:24.790Z,46.00
2023-02-11T11:10:02.123Z,39.15
2023-02-11T11:12:32.136Z,37.65
2023-02-11T11:15:21.008Z,41.75
2023-02-11T11:18:20.915Z,40.95
2023-02-11T11:21:06.844Z,38.17
2023-02-11T11:23:36.477Z,36.78
2023-02-11T11:26:08.726Z,37.17
2023-02-11T11:28:49.402Z,39.28
2023-02-11T11:31:19.348Z,51.97
2023-02-11T11:33:47.103Z,39.13
2023-02-11T11:36:19.218Z,47.25
2023-02-11T11:38:56.796Z,48.97
2023-02-11T11:41:31.992Z,46.22
2023-02-11T11:43:59.005Z,48.08
2023-02-11T11:46:29.851Z,39.55
2023-02-11T11:49:02.732Z,36.00
2023-02-11T11:51:29.201Z,38.75
2023-02-11T11:54:03.578Z,43.03
2023-02-11T11:56:33.004Z,44.88
2023-02-11T11:59:19.682Z,42.22
2023-02-11T12:02:10.089Z,41.55
2023-02-11T12:05:00.119Z,38.22
2023-02-11T12:07:50.300Z,45.47
2023-02-11T12:10:33.557Z,40.58
2023-02-11T12:12:59.286Z,48.55
2023-02-11T12:15:39.898Z,44.10
2023-02-11T12:18:32.168Z,45.42
2023-02-11T12:21:19.367Z,42.22
2023-02-11T12:23:48.032Z,38.53
2023-02-11T12:26:20.206Z,47.10
2023-02-11T12:29:20.897Z,41.03
2023-02-11T12:31:52.455Z,40.67
2023-02-11T12:34:29.897Z,39.97
2023-02-11T12:37:16.828Z,40.42
2023-02-11T12:39:54.905Z,55.00
2023-02-11T12:43:08.565Z,47.40
2023-02-11T12:45:40.591Z,50.17
2023-02-11T12:48:35.393Z,42.92
2023-02-11T12:51:26.531Z,46.92
2023-02-11T12:54:29.741Z,39.47
2023-02-11T12:57:20.725Z,43.22
2023-02-11T13:00:02.323Z,52.83
2023-02-11T13:02:59.089Z,54.15
2023-02-11T13:05:46.036Z,43.72
2023-02-11T13:08:20.618Z,41.90
2023-02-11T13:10:50.217Z,46.13
2023-02-11T13:13:22.052Z,41.70
2023-02-11T13:16:09.685Z,51.88
2023-02-11T13:18:55.083Z,48.22
2023-02-11T13:21:48.045Z,45.00
2023-02-11T13:24:16.846Z,49.28
2023-02-11T13:26:58.862Z,48.92
2023-02-11T13:29:48.492Z,59.65
2023-02-11T13:32:15.483Z,56.72
2023-02-11T13:34:41.739Z,53.10
2023-02-11T13:37:26.265Z,43.10
2023-02-11T13:40:02.755Z,43.95
2023-02-11T13:42:30.421Z,56.40
2023-02-11T13:44:57.329Z,53.53
2023-02-11T13:47:36.111Z,46.67
2023-02-11T13:50:06.058Z,50.53
2023-02-11T13:52:38.379Z,52.90
2023-02-11T13:55:21.725Z,44.72
2023-02-11T13:58:11.237Z,55.33
2023-02-11T14:00:37.404Z,49.35
2023-02-11T14:03:33.811Z,65.40
2023-02-11T14:06:34.346Z,60.63
2023-02-11T14:09:09.507Z,46.28
2023-02-11T14:11:54.568Z,47.97
2023-02-11T14:14:27.758Z,58.78
2023-02-11T14:17:00.257Z,47.40
2023-02-11T14:19:52.740Z,63.17
2023-02-11T14:22:25.255Z,50.22
2023-02-11T14:24:51.070Z,51.00
2023-02-11T14:27:24.028Z,49.50
2023-02-11T14:30:02.019Z,50.25
2023-02-11T14:32:47.477Z,50.53
2023-02-11T14:35:40.559Z,61.35
2023-02-11T14:38:14.483Z,49.85
2023-02-11T14:40:52.074Z,50.97
2023-02-11T14:43:22.962Z,55.38
2023-02-11T14:45:55.192Z,52.25
2023-02-11T14:48:36.384Z,52.65
2023-02-11T14:51:14.418Z,50.30
2023-02-11T14:53:48.373Z,62.50
2023-02-11T14:56:20.948Z,64.15
2023-02-11T14:58:48.878Z,48.28
2023-02-11T15:01:26.326Z,48.90
2023-02-11T15:03:55.707Z,52.35
2023-02-11T15:06:35.983Z,47.58
2023-02-11T15:09:07.224Z,68.47
2023-02-11T15:11:38.824Z,51.20
2023-02-11T15:14:21.654Z,55.38
2023-02-11T15:16:48.800Z,54.67
2023-02-11T15:19:26.060Z,56.00
2023-02-11T15:21:52.956Z,56.28
2023-02-11T15:24:29.155Z,49.30
2023-02-11T15:27:07.463Z,60.22
2023-02-11T15:29:40.569Z,53.30
2023-02-11T15:32:14.184Z,54.65
2023-02-11T15:34:40.616Z,54.22
2023-02-11T15:37:06.843Z,51.25
2023-02-11T15:39:37.830Z,53.17
2023-02-11T15:42:20.459Z,52.60
2023-02-11T15:44:52.282Z,52.30
2023-02-11T15:47:21.702Z,54.03
2023-02-11T15:49:48.265Z,53.55
2023-02-11T15:52:23.158Z,57.70
2023-02-11T15:54:49.342Z,55.67
2023-02-11T15:57:17.115Z,54.22
2023-02-11T15:59:52.503Z,55.55
2023-02-11T16:02:32.021Z,60.72
2023-02-11T16:05:08.808Z,56.88
2023-02-11T16:07:37.318Z,62.60
2023-02-11T16:10:03.638Z,55.58
2023-02-11T16:12:29.512Z,55.10
2023-02-11T16:14:58.967Z,55.85
2023-02-11T16:17:28.722Z,64.53
2023-02-11T16:19:55.300Z,58.95
2023-02-11T16:22:26.807Z,55.13
2023-02-11T16:24:56.486Z,54.42
2023-02-11T16:27:29.767Z,58.03
2023-02-11T16:29:57.129Z,56.72
2023-02-11T16:32:25.784Z,57.08
2023-02-11T16:34:54.475Z,56.90
2023-02-11T16:37:20.564Z,56.03
2023-02-11T16:39:46.628Z,52.40
2023-02-11T16:42:12.464Z,54.60
2023-02-11T16:44:38.766Z,52.22
2023-02-11T16:47:14.190Z,55.67
2023-02-11T16:49:41.875Z,53.35
2023-02-11T16:52:13.167Z,55.85
2023-02-11T16:54:39.152Z,52.47
2023-02-11T16:57:13.146Z,55.75
2023-02-11T16:59:39.001Z,57.65
2023-02-11T17:05:55.420Z,53.35
2023-02-11T17:10:56.084Z,53.67
2023-02-11T17:13:23.370Z,53.83
2023-02-11T17:15:49.284Z,56.10
2023-02-11T17:18:15.233Z,51.45
2023-02-11T17:20:41.187Z,55.00
2023-02-11T17:23:07.232Z,57.47
2023-02-11T17:25:36.607Z,57.28
2023-02-11T17:28:04.885Z,58.53
2023-02-11T17:30:30.891Z,54.75
2023-02-11T17:32:56.699Z,61.42
2023-02-11T17:35:22.710Z,62.35
2023-02-11T17:37:48.837Z,55.75
2023-02-11T17:40:15.375Z,52.53
2023-02-11T17:42:44.702Z,54.75
2023-02-11T17:45:12.332Z,54.42
2023-02-11T17:47:38.474Z,53.50
2023-02-11T17:50:05.280Z,56.42
2023-02-11T17:52:31.278Z,53.63
2023-02-11T17:54:57.473Z,52.58
2023-02-11T17:57:23.442Z,52.05
2023-02-11T17:59:49.644Z,50.72
2023-02-11T18:02:16.039Z,53.75
2023-02-11T18:04:42.358Z,51.63
2023-02-11T18:07:08.651Z,52.58
2023-02-11T18:09:39.814Z,58.85
2023-02-11T18:12:07.579Z,65.75
2023-02-11T18:14:36.521Z,54.40
2023-02-11T18:17:02.698Z,55.72
2023-02-11T18:19:34.647Z,55.03
2023-02-11T18:22:01.251Z,57.03
2023-02-11T18:24:27.255Z,57.25
2023-02-11T18:26:53.317Z,53.55
2023-02-11T18:29:19.492Z,56.65
2023-02-11T18:31:45.595Z,66.22
2023-02-11T18:34:12.128Z,55.25
2023-02-11T18:36:38.872Z,65.30
2023-02-11T18:39:05.683Z,57.63
2023-02-11T18:41:31.865Z,70.95
2023-02-11T18:43:58.367Z,59.72
2023-02-11T18:46:24.549Z,63.30
2023-02-11T18:48:54.335Z,68.97
2023-02-11T18:51:22.579Z,72.70
2023-02-11T18:53:48.668Z,59.83
2023-02-11T18:56:18.072Z,61.92
2023-02-11T18:58:44.423Z,60.65
2023-02-11T19:01:16.413Z,62.83
2023-02-11T19:03:43.188Z,60.65
2023-02-11T19:06:17.206Z,60.20
2023-02-11T19:08:43.437Z,62.88
2023-02-11T19:11:09.524Z,65.65
2023-02-11T19:13:35.397Z,66.80
2023-02-11T19:16:05.607Z,80.22
2023-02-11T19:18:33.981Z,66.18
2023-02-11T19:21:11.204Z,74.03
2023-02-11T19:23:38.181Z,68.47
2023-02-11T19:26:05.840Z,67.90
2023-02-11T19:28:32.580Z,66.18
2023-02-11T19:31:06.026Z,64.20
2023-02-11T19:33:32.055Z,70.03
2023-02-11T19:36:02.798Z,67.25
2023-02-11T19:38:28.647Z,63.17
2023-02-11T19:40:55.704Z,65.18
2023-02-11T19:43:21.847Z,72.15
2023-02-11T19:45:47.749Z,64.35
2023-02-11T19:48:13.665Z,70.68
2023-02-11T19:50:39.532Z,67.03
2023-02-11T19:53:05.286Z,76.53
2023-02-11T19:55:34.055Z,65.20
2023-02-11T19:57:59.827Z,69.13
2023-02-11T20:00:25.829Z,68.00
2023-02-11T20:02:51.825Z,65.97
2023-02-11T20:05:17.943Z,75.47
2023-02-11T20:07:43.811Z,72.50
2023-02-11T20:10:09.836Z,70.50
2023-02-11T20:12:36.824Z,68.38
2023-02-11T20:15:03.840Z,68.03
2023-02-11T20:17:29.675Z,71.80
2023-02-11T20:19:55.551Z,68.18
2023-02-11T20:22:21.373Z,69.35
2023-02-11T20:24:47.373Z,76.40
2023-02-11T20:27:13.268Z,70.55
2023-02-11T20:29:39.512Z,71.00
2023-02-11T20:32:06.610Z,72.97
2023-02-11T20:34:33.703Z,67.93
2023-02-11T20:36:59.867Z,79.80
2023-02-11T20:39:26.125Z,70.00
2023-02-11T20:41:53.149Z,65.60
2023-02-11T20:44:21.629Z,67.25
2023-02-11T20:46:48.051Z,75.45
2023-02-11T20:49:18.115Z,69.00
2023-02-11T20:51:44.470Z,68.38
2023-02-11T20:54:15.449Z,85.55
2023-02-11T20:56:41.829Z,71.25
2023-02-11T20:59:08.263Z,74.07
2023-02-11T21:01:37.011Z,77.43
2023-02-11T21:04:06.410Z,68.70
2023-02-11T21:06:38.286Z,77.50
2023-02-11T21:09:05.819Z,72.15
2023-02-11T21:11:32.046Z,87.93
2023-02-11T21:13:58.023Z,89.50
2023-02-11T21:16:24.220Z,88.20
2023-02-11T21:18:51.451Z,77.60
2023-02-11T21:21:18.999Z,72.38
2023-02-11T21:23:45.500Z,83.80
2023-02-11T21:26:12.098Z,68.45
2023-02-11T21:28:40.828Z,73.38
2023-02-11T21:31:07.820Z,72.20
2023-02-11T21:33:34.069Z,74.65
2023-02-11T21:36:03.019Z,81.25
2023-02-11T21:38:29.797Z,78.10
2023-02-11T21:41:01.576Z,89.53
2023-02-11T21:43:27.387Z,73.05
2023-02-11T21:45:54.037Z,74.78
2023-02-11T21:48:20.265Z,81.78
2023-02-11T21:50:47.094Z,74.15
2023-02-11T21:53:13.870Z,90.28
2023-02-11T21:55:40.595Z,77.60
2023-02-11T21:58:09.643Z,89.63
2023-02-11T22:00:36.154Z,91.22
2023-02-11T22:03:02.261Z,76.80
2023-02-11T22:05:28.296Z,78.45
2023-02-11T22:07:54.970Z,81.32
2023-02-11T22:10:21.166Z,80.38
2023-02-11T22:12:47.264Z,85.35
2023-02-11T22:15:13.855Z,87.88
2023-02-11T22:17:39.944Z,87.53
2023-02-11T22:20:06.635Z,78.68
2023-02-11T22:22:32.468Z,82.30
2023-02-11T22:24:59.701Z,74.47
2023-02-11T22:27:25.736Z,80.68
2023-02-11T22:29:52.348Z,78.47
2023-02-11T22:32:18.715Z,79.65
2023-02-11T22:34:44.922Z,84.30
2023-02-11T22:37:11.495Z,80.28
2023-02-11T22:39:37.414Z,78.35
2023-02-11T22:42:04.121Z,78.15
2023-02-11T22:44:29.969Z,76.85
2023-02-11T22:46:55.946Z,82.15
2023-02-11T22:49:22.165Z,78.78
2023-02-11T22:51:49.416Z,76.45
2023-02-11T22:54:17.437Z,77.78
2023-02-11T22:56:44.198Z,77.40
2023-02-11T22:59:14.348Z,75.90
2023-02-11T23:01:41.298Z,72.65
2023-02-11T23:04:10.570Z,72.90
2023-02-11T23:06:37.146Z,74.65
2023-02-11T23:09:05.059Z,76.53
2023-02-11T23:11:31.690Z,75.72
2023-02-11T23:13:57.860Z,70.55
2023-02-11T23:16:26.741Z,71.30
2023-02-11T23:18:53.810Z,70.25
2023-02-11T23:21:22.887Z,68.75
2023-02-11T23:23:53.157Z,71.25
2023-02-11T23:26:19.163Z,71.93
2023-02-11T23:28:46.143Z,70.38
2023-02-11T23:31:19.807Z,69.32
2023-02-11T23:33:46.940Z,67.53
2023-02-11T23:36:15.004Z,68.35
2023-02-11T23:38:41.171Z,68.07
2023-02-11T23:41:07.051Z,62.80
2023-02-11T23:43:33.078Z,64.50
2023-02-11T23:45:58.921Z,62.88
2023-02-11T23:48:25.499Z,64.55
2023-02-11T23:50:51.397Z,62.83
2023-02-11T23:53:17.361Z,61.83
2023-02-11T23:55:45.026Z,65.38
2023-02-11T23:58:12.485Z,67.35
